sensor_id;sensor_type;location;lat;lon;timestamp;P1;durP1;ratioP1;P2;durP2;ratioP2
59054;SDS011;44845;51.444;7.460;2023-06-01T00:00:28;4.43;;;2.20;;
59054;SDS011;44845;51.444;7.460;2023-06-01T00:02:53;3.30;;;2.08;;
59054;SDS011;44845;51.444;7.460;2023-06-01T00:05:18;5.15;;;2.30;;
59054;SDS011;44845;51.444;7.460;2023-06-01T00:07:44;5.15;;;2.20;;
59054;SDS011;44845;51.444;7.460;2023-06-01T00:10:09;3.92;;;2.08;;
59054;SDS011;44845;51.444;7.460;2023-06-01T00:12:34;5.68;;;2.17;;
59054;SDS011;44845;51.444;7.460;2023-06-01T00:15:00;8.13;;;2.42;;
59054;SDS011;44845;51.444;7.460;2023-06-01T00:17:25;3.65;;;1.80;;
59054;SDS011;44845;51.444;7.460;2023-06-01T00:19:53;4.85;;;1.80;;
59054;SDS011;44845;51.444;7.460;2023-06-01T00:22:19;5.13;;;2.22;;
59054;SDS011;44845;51.444;7.460;2023-06-01T00:24:44;3.03;;;2.05;;
59054;SDS011;44845;51.444;7.460;2023-06-01T00:27:10;7.15;;;2.10;;
59054;SDS011;44845;51.444;7.460;2023-06-01T00:29:35;10.48;;;2.88;;
59054;SDS011;44845;51.444;7.460;2023-06-01T00:32:01;3.63;;;2.30;;
59054;SDS011;44845;51.444;7.460;2023-06-01T00:34:26;8.38;;;2.42;;
59054;SDS011;44845;51.444;7.460;2023-06-01T00:36:51;5.63;;;2.20;;
59054;SDS011;44845;51.444;7.460;2023-06-01T00:39:17;8.32;;;2.85;;
59054;SDS011;44845;51.444;7.460;2023-06-01T00:41:42;4.53;;;2.42;;
59054;SDS011;44845;51.444;7.460;2023-06-01T00:44:07;5.78;;;2.60;;
59054;SDS011;44845;51.444;7.460;2023-06-01T00:46:33;8.63;;;2.75;;
59054;SDS011;44845;51.444;7.460;2023-06-01T00:48:59;9.02;;;3.35;;
59054;SDS011;44845;51.444;7.460;2023-06-01T00:51:24;6.18;;;2.50;;
59054;SDS011;44845;51.444;7.460;2023-06-01T00:53:50;5.90;;;3.00;;
59054;SDS011;44845;51.444;7.460;2023-06-01T00:56:16;5.82;;;3.17;;
59054;SDS011;44845;51.444;7.460;2023-06-01T00:58:42;6.25;;;3.38;;
59054;SDS011;44845;51.444;7.460;2023-06-01T01:01:08;4.82;;;3.00;;
59054;SDS011;44845;51.444;7.460;2023-06-01T01:03:44;7.93;;;3.17;;
59054;SDS011;44845;51.444;7.460;2023-06-01T01:06:15;8.43;;;3.03;;
59054;SDS011;44845;51.444;7.460;2023-06-01T01:08:50;9.38;;;3.83;;
59054;SDS011;44845;51.444;7.460;2023-06-01T01:11:26;6.63;;;3.60;;
59054;SDS011;44845;51.444;7.460;2023-06-01T01:13:58;7.60;;;3.58;;
59054;SDS011;44845;51.444;7.460;2023-06-01T01:16:31;4.18;;;3.38;;
59054;SDS011;44845;51.444;7.460;2023-06-01T01:22:43;8.63;;;3.53;;
59054;SDS011;44845;51.444;7.460;2023-06-01T01:28:33;5.57;;;3.50;;
59054;SDS011;44845;51.444;7.460;2023-06-01T01:31:05;8.60;;;3.53;;
59054;SDS011;44845;51.444;7.460;2023-06-01T01:33:33;7.25;;;3.50;;
59054;SDS011;44845;51.444;7.460;2023-06-01T01:36:00;6.05;;;4.10;;
59054;SDS011;44845;51.444;7.460;2023-06-01T01:38:26;5.65;;;3.85;;
59054;SDS011;44845;51.444;7.460;2023-06-01T01:40:51;7.50;;;3.80;;
59054;SDS011;44845;51.444;7.460;2023-06-01T01:43:18;7.40;;;3.58;;
59054;SDS011;44845;51.444;7.460;2023-06-01T01:45:44;8.32;;;3.40;;
59054;SDS011;44845;51.444;7.460;2023-06-01T01:48:20;5.32;;;3.40;;
59054;SDS011;44845;51.444;7.460;2023-06-01T01:51:01;10.30;;;3.67;;
59054;SDS011;44845;51.444;7.460;2023-06-01T01:53:32;10.07;;;5.40;;
59054;SDS011;44845;51.444;7.460;2023-06-01T01:55:58;10.52;;;6.20;;
59054;SDS011;44845;51.444;7.460;2023-06-01T01:58:24;19.95;;;7.18;;
59054;SDS011;44845;51.444;7.460;2023-06-01T02:00:51;14.98;;;7.80;;
59054;SDS011;44845;51.444;7.460;2023-06-01T02:03:18;15.07;;;8.15;;
59054;SDS011;44845;51.444;7.460;2023-06-01T02:05:43;18.75;;;8.30;;
59054;SDS011;44845;51.444;7.460;2023-06-01T02:08:09;14.23;;;8.57;;
59054;SDS011;44845;51.444;7.460;2023-06-01T02:10:36;14.15;;;8.02;;
59054;SDS011;44845;51.444;7.460;2023-06-01T02:13:02;13.20;;;7.38;;
59054;SDS011;44845;51.444;7.460;2023-06-01T02:15:27;13.07;;;8.00;;
59054;SDS011;44845;51.444;7.460;2023-06-01T02:17:53;14.57;;;8.27;;
59054;SDS011;44845;51.444;7.460;2023-06-01T02:20:18;13.32;;;8.32;;
59054;SDS011;44845;51.444;7.460;2023-06-01T02:22:44;15.60;;;8.85;;
59054;SDS011;44845;51.444;7.460;2023-06-01T02:25:10;14.63;;;8.95;;
59054;SDS011;44845;51.444;7.460;2023-06-01T02:27:35;18.20;;;9.40;;
59054;SDS011;44845;51.444;7.460;2023-06-01T02:30:00;19.30;;;9.27;;
59054;SDS011;44845;51.444;7.460;2023-06-01T02:32:26;12.30;;;9.13;;
59054;SDS011;44845;51.444;7.460;2023-06-01T02:34:51;16.10;;;9.00;;
59054;SDS011;44845;51.444;7.460;2023-06-01T02:37:17;16.42;;;9.73;;
59054;SDS011;44845;51.444;7.460;2023-06-01T02:39:42;15.10;;;10.50;;
59054;SDS011;44845;51.444;7.460;2023-06-01T02:42:08;16.42;;;10.38;;
59054;SDS011;44845;51.444;7.460;2023-06-01T02:44:33;19.42;;;10.95;;
59054;SDS011;44845;51.444;7.460;2023-06-01T02:46:58;18.25;;;11.00;;
59054;SDS011;44845;51.444;7.460;2023-06-01T02:49:24;21.15;;;12.15;;
59054;SDS011;44845;51.444;7.460;2023-06-01T02:51:49;19.15;;;11.40;;
59054;SDS011;44845;51.444;7.460;2023-06-01T02:54:15;19.75;;;11.73;;
59054;SDS011;44845;51.444;7.460;2023-06-01T02:56:40;20.70;;;12.30;;
59054;SDS011;44845;51.444;7.460;2023-06-01T02:59:05;21.48;;;12.10;;
59054;SDS011;44845;51.444;7.460;2023-06-01T03:01:31;28.90;;;13.40;;
59054;SDS011;44845;51.444;7.460;2023-06-01T03:04:00;23.50;;;13.00;;
59054;SDS011;44845;51.444;7.460;2023-06-01T03:06:32;22.27;;;13.20;;
59054;SDS011;44845;51.444;7.460;2023-06-01T03:09:02;24.25;;;14.18;;
59054;SDS011;44845;51.444;7.460;2023-06-01T03:11:27;25.23;;;14.35;;
59054;SDS011;44845;51.444;7.460;2023-06-01T03:13:53;24.30;;;13.52;;
59054;SDS011;44845;51.444;7.460;2023-06-01T03:16:18;27.38;;;14.75;;
59054;SDS011;44845;51.444;7.460;2023-06-01T03:18:43;27.33;;;15.82;;
59054;SDS011;44845;51.444;7.460;2023-06-01T03:21:09;24.50;;;13.68;;
59054;SDS011;44845;51.444;7.460;2023-06-01T03:23:34;26.67;;;15.48;;
59054;SDS011;44845;51.444;7.460;2023-06-01T03:26:00;24.15;;;14.70;;
59054;SDS011;44845;51.444;7.460;2023-06-01T03:28:29;27.92;;;14.88;;
59054;SDS011;44845;51.444;7.460;2023-06-01T03:30:54;23.20;;;14.63;;
59054;SDS011;44845;51.444;7.460;2023-06-01T03:33:20;25.50;;;14.95;;
59054;SDS011;44845;51.444;7.460;2023-06-01T03:35:46;24.52;;;14.93;;
59054;SDS011;44845;51.444;7.460;2023-06-01T03:38:11;28.00;;;14.57;;
59054;SDS011;44845;51.444;7.460;2023-06-01T03:40:36;29.95;;;14.98;;
59054;SDS011;44845;51.444;7.460;2023-06-01T03:43:02;23.15;;;15.25;;
59054;SDS011;44845;51.444;7.460;2023-06-01T03:45:28;30.30;;;15.80;;
59054;SDS011;44845;51.444;7.460;2023-06-01T03:47:53;28.52;;;15.90;;
59054;SDS011;44845;51.444;7.460;2023-06-01T03:50:18;31.10;;;15.70;;
59054;SDS011;44845;51.444;7.460;2023-06-01T03:52:44;26.17;;;16.05;;
59054;SDS011;44845;51.444;7.460;2023-06-01T03:55:10;25.80;;;15.32;;
59054;SDS011;44845;51.444;7.460;2023-06-01T03:57:38;30.08;;;15.95;;
59054;SDS011;44845;51.444;7.460;2023-06-01T04:00:04;29.80;;;16.40;;
59054;SDS011;44845;51.444;7.460;2023-06-01T04:02:42;27.80;;;16.08;;
59054;SDS011;44845;51.444;7.460;2023-06-01T04:05:31;29.83;;;16.00;;
59054;SDS011;44845;51.444;7.460;2023-06-01T04:07:57;28.73;;;15.25;;
59054;SDS011;44845;51.444;7.460;2023-06-01T04:10:22;31.58;;;16.00;;
59054;SDS011;44845;51.444;7.460;2023-06-01T04:12:48;24.65;;;14.43;;
59054;SDS011;44845;51.444;7.460;2023-06-01T04:15:15;23.60;;;15.27;;
59054;SDS011;44845;51.444;7.460;2023-06-01T04:17:42;26.75;;;15.52;;
59054;SDS011;44845;51.444;7.460;2023-06-01T04:20:09;25.83;;;15.77;;
59054;SDS011;44845;51.444;7.460;2023-06-01T04:22:36;26.02;;;14.85;;
59054;SDS011;44845;51.444;7.460;2023-06-01T04:25:06;24.20;;;15.63;;
59054;SDS011;44845;51.444;7.460;2023-06-01T04:27:33;22.88;;;15.27;;
59054;SDS011;44845;51.444;7.460;2023-06-01T04:30:02;26.75;;;14.77;;
59054;SDS011;44845;51.444;7.460;2023-06-01T04:32:32;27.30;;;16.10;;
59054;SDS011;44845;51.444;7.460;2023-06-01T04:35:00;29.60;;;16.20;;
59054;SDS011;44845;51.444;7.460;2023-06-01T04:37:26;23.83;;;15.45;;
59054;SDS011;44845;51.444;7.460;2023-06-01T04:39:54;27.30;;;15.40;;
59054;SDS011;44845;51.444;7.460;2023-06-01T04:42:21;25.83;;;15.98;;
59054;SDS011;44845;51.444;7.460;2023-06-01T04:44:46;23.33;;;15.43;;
59054;SDS011;44845;51.444;7.460;2023-06-01T04:47:14;27.15;;;15.75;;
59054;SDS011;44845;51.444;7.460;2023-06-01T04:49:41;26.52;;;16.42;;
59054;SDS011;44845;51.444;7.460;2023-06-01T04:52:07;26.95;;;16.42;;
59054;SDS011;44845;51.444;7.460;2023-06-01T04:54:35;27.67;;;16.63;;
59054;SDS011;44845;51.444;7.460;2023-06-01T04:57:00;27.48;;;15.88;;
59054;SDS011;44845;51.444;7.460;2023-06-01T04:59:26;25.00;;;15.90;;
59054;SDS011;44845;51.444;7.460;2023-06-01T05:01:52;23.58;;;15.18;;
59054;SDS011;44845;51.444;7.460;2023-06-01T05:04:17;23.90;;;14.68;;
59054;SDS011;44845;51.444;7.460;2023-06-01T05:06:42;25.52;;;15.80;;
59054;SDS011;44845;51.444;7.460;2023-06-01T05:09:08;24.35;;;15.05;;
59054;SDS011;44845;51.444;7.460;2023-06-01T05:11:33;24.80;;;14.20;;
59054;SDS011;44845;51.444;7.460;2023-06-01T05:13:58;23.48;;;14.73;;
59054;SDS011;44845;51.444;7.460;2023-06-01T05:16:26;23.15;;;14.35;;
59054;SDS011;44845;51.444;7.460;2023-06-01T05:18:52;26.38;;;14.57;;
59054;SDS011;44845;51.444;7.460;2023-06-01T05:21:20;22.55;;;14.13;;
59054;SDS011;44845;51.444;7.460;2023-06-01T05:23:46;24.10;;;14.57;;
59054;SDS011;44845;51.444;7.460;2023-06-01T05:26:12;22.17;;;14.40;;
59054;SDS011;44845;51.444;7.460;2023-06-01T05:28:37;24.60;;;14.80;;
59054;SDS011;44845;51.444;7.460;2023-06-01T05:31:02;23.20;;;14.98;;
59054;SDS011;44845;51.444;7.460;2023-06-01T05:33:28;26.38;;;14.98;;
59054;SDS011;44845;51.444;7.460;2023-06-01T05:35:53;24.15;;;15.55;;
59054;SDS011;44845;51.444;7.460;2023-06-01T05:38:19;24.88;;;14.32;;
59054;SDS011;44845;51.444;7.460;2023-06-01T05:40:45;22.80;;;14.68;;
59054;SDS011;44845;51.444;7.460;2023-06-01T05:43:10;24.35;;;14.80;;
59054;SDS011;44845;51.444;7.460;2023-06-01T05:45:36;25.85;;;15.48;;
59054;SDS011;44845;51.444;7.460;2023-06-01T05:48:01;24.67;;;14.48;;
59054;SDS011;44845;51.444;7.460;2023-06-01T05:50:27;30.85;;;15.43;;
59054;SDS011;44845;51.444;7.460;2023-06-01T05:52:52;22.35;;;14.43;;
59054;SDS011;44845;51.444;7.460;2023-06-01T05:55:18;23.95;;;15.70;;
59054;SDS011;44845;51.444;7.460;2023-06-01T05:57:44;31.83;;;17.98;;
59054;SDS011;44845;51.444;7.460;2023-06-01T06:00:10;28.50;;;16.90;;
59054;SDS011;44845;51.444;7.460;2023-06-01T06:02:38;30.80;;;18.58;;
59054;SDS011;44845;51.444;7.460;2023-06-01T06:05:07;29.95;;;19.02;;
59054;SDS011;44845;51.444;7.460;2023-06-01T06:07:33;37.28;;;22.92;;
59054;SDS011;44845;51.444;7.460;2023-06-01T06:09:58;42.92;;;24.52;;
59054;SDS011;44845;51.444;7.460;2023-06-01T06:12:23;41.45;;;25.35;;
59054;SDS011;44845;51.444;7.460;2023-06-01T06:14:49;42.38;;;26.55;;
59054;SDS011;44845;51.444;7.460;2023-06-01T06:17:14;45.45;;;29.80;;
59054;SDS011;44845;51.444;7.460;2023-06-01T06:19:40;49.30;;;30.90;;
59054;SDS011;44845;51.444;7.460;2023-06-01T06:22:08;50.92;;;32.97;;
59054;SDS011;44845;51.444;7.460;2023-06-01T06:24:33;54.95;;;34.53;;
59054;SDS011;44845;51.444;7.460;2023-06-01T06:27:01;54.78;;;34.05;;
59054;SDS011;44845;51.444;7.460;2023-06-01T06:29:27;57.83;;;35.42;;
59054;SDS011;44845;51.444;7.460;2023-06-01T06:31:52;66.38;;;37.67;;
59054;SDS011;44845;51.444;7.460;2023-06-01T06:34:18;65.13;;;38.85;;
59054;SDS011;44845;51.444;7.460;2023-06-01T06:36:43;69.50;;;38.80;;
59054;SDS011;44845;51.444;7.460;2023-06-01T06:39:08;61.95;;;38.58;;
59054;SDS011;44845;51.444;7.460;2023-06-01T06:41:34;68.82;;;40.15;;
59054;SDS011;44845;51.444;7.460;2023-06-01T06:43:59;66.07;;;38.15;;
59054;SDS011;44845;51.444;7.460;2023-06-01T06:46:24;62.22;;;37.45;;
59054;SDS011;44845;51.444;7.460;2023-06-01T06:48:50;67.55;;;37.25;;
59054;SDS011;44845;51.444;7.460;2023-06-01T06:51:16;61.67;;;34.88;;
59054;SDS011;44845;51.444;7.460;2023-06-01T06:53:41;62.25;;;36.25;;
59054;SDS011;44845;51.444;7.460;2023-06-01T06:56:06;64.32;;;37.08;;
59054;SDS011;44845;51.444;7.460;2023-06-01T06:58:32;59.58;;;35.83;;
59054;SDS011;44845;51.444;7.460;2023-06-01T07:00:57;55.70;;;33.15;;
59054;SDS011;44845;51.444;7.460;2023-06-01T07:03:22;59.22;;;34.83;;
59054;SDS011;44845;51.444;7.460;2023-06-01T07:05:48;52.50;;;33.78;;
59054;SDS011;44845;51.444;7.460;2023-06-01T07:08:13;64.63;;;35.08;;
59054;SDS011;44845;51.444;7.460;2023-06-01T07:10:39;60.92;;;36.95;;
59054;SDS011;44845;51.444;7.460;2023-06-01T07:13:05;58.40;;;36.95;;
59054;SDS011;44845;51.444;7.460;2023-06-01T07:15:30;50.50;;;31.38;;
59054;SDS011;44845;51.444;7.460;2023-06-01T07:17:55;47.50;;;30.52;;
59054;SDS011;44845;51.444;7.460;2023-06-01T07:20:21;49.75;;;30.85;;
59054;SDS011;44845;51.444;7.460;2023-06-01T07:22:46;49.83;;;32.70;;
59054;SDS011;44845;51.444;7.460;2023-06-01T07:25:12;42.45;;;29.10;;
59054;SDS011;44845;51.444;7.460;2023-06-01T07:27:38;46.85;;;32.88;;
59054;SDS011;44845;51.444;7.460;2023-06-01T07:30:08;61.45;;;36.90;;
59054;SDS011;44845;51.444;7.460;2023-06-01T07:32:35;61.63;;;36.95;;
59054;SDS011;44845;51.444;7.460;2023-06-01T07:35:01;60.05;;;36.72;;
59054;SDS011;44845;51.444;7.460;2023-06-01T07:37:26;60.05;;;37.38;;
59054;SDS011;44845;51.444;7.460;2023-06-01T07:39:54;64.70;;;37.60;;
59054;SDS011;44845;51.444;7.460;2023-06-01T07:42:19;56.58;;;36.17;;
59054;SDS011;44845;51.444;7.460;2023-06-01T07:44:45;52.17;;;36.00;;
59054;SDS011;44845;51.444;7.460;2023-06-01T07:47:11;53.03;;;35.40;;
59054;SDS011;44845;51.444;7.460;2023-06-01T07:49:36;52.50;;;33.95;;
59054;SDS011;44845;51.444;7.460;2023-06-01T07:52:02;51.05;;;32.65;;
59054;SDS011;44845;51.444;7.460;2023-06-01T07:54:28;55.13;;;35.75;;
59054;SDS011;44845;51.444;7.460;2023-06-01T07:56:54;46.28;;;30.92;;
59054;SDS011;44845;51.444;7.460;2023-06-01T07:59:19;38.83;;;26.35;;
59054;SDS011;44845;51.444;7.460;2023-06-01T08:01:46;36.92;;;25.25;;
59054;SDS011;44845;51.444;7.460;2023-06-01T08:04:13;35.65;;;24.45;;
59054;SDS011;44845;51.444;7.460;2023-06-01T08:06:39;38.42;;;23.77;;
59054;SDS011;44845;51.444;7.460;2023-06-01T08:09:06;36.13;;;23.55;;
59054;SDS011;44845;51.444;7.460;2023-06-01T08:11:31;35.28;;;22.65;;
59054;SDS011;44845;51.444;7.460;2023-06-01T08:13:57;35.10;;;24.40;;
59054;SDS011;44845;51.444;7.460;2023-06-01T08:16:24;34.20;;;22.60;;
59054;SDS011;44845;51.444;7.460;2023-06-01T08:18:51;40.53;;;24.15;;
59054;SDS011;44845;51.444;7.460;2023-06-01T08:21:17;34.63;;;21.92;;
59054;SDS011;44845;51.444;7.460;2023-06-01T08:23:42;30.65;;;21.73;;
59054;SDS011;44845;51.444;7.460;2023-06-01T08:26:08;33.28;;;21.90;;
59054;SDS011;44845;51.444;7.460;2023-06-01T08:28:34;38.28;;;21.92;;
59054;SDS011;44845;51.444;7.460;2023-06-01T08:30:59;28.60;;;19.23;;
59054;SDS011;44845;51.444;7.460;2023-06-01T08:33:25;31.45;;;19.20;;
59054;SDS011;44845;51.444;7.460;2023-06-01T08:35:51;30.42;;;20.80;;
59054;SDS011;44845;51.444;7.460;2023-06-01T08:38:16;30.65;;;20.30;;
59054;SDS011;44845;51.444;7.460;2023-06-01T08:40:41;29.25;;;20.65;;
59054;SDS011;44845;51.444;7.460;2023-06-01T08:43:19;31.13;;;20.13;;
59054;SDS011;44845;51.444;7.460;2023-06-01T08:45:45;24.33;;;15.10;;
59054;SDS011;44845;51.444;7.460;2023-06-01T08:48:15;23.17;;;14.65;;
59054;SDS011;44845;51.444;7.460;2023-06-01T08:50:42;26.35;;;15.13;;
59054;SDS011;44845;51.444;7.460;2023-06-01T08:53:12;22.48;;;14.55;;
59054;SDS011;44845;51.444;7.460;2023-06-01T08:55:37;26.23;;;15.50;;
59054;SDS011;44845;51.444;7.460;2023-06-01T08:58:03;26.10;;;15.63;;
59054;SDS011;44845;51.444;7.460;2023-06-01T09:00:30;24.20;;;14.43;;
59054;SDS011;44845;51.444;7.460;2023-06-01T09:02:57;23.73;;;14.48;;
59054;SDS011;44845;51.444;7.460;2023-06-01T09:05:23;17.88;;;13.15;;
59054;SDS011;44845;51.444;7.460;2023-06-01T09:07:49;20.25;;;13.30;;
59054;SDS011;44845;51.444;7.460;2023-06-01T09:10:15;20.67;;;12.45;;
59054;SDS011;44845;51.444;7.460;2023-06-01T09:12:50;18.65;;;12.18;;
59054;SDS011;44845;51.444;7.460;2023-06-01T09:15:20;15.05;;;11.15;;
59054;SDS011;44845;51.444;7.460;2023-06-01T09:17:49;21.80;;;12.07;;
59054;SDS011;44845;51.444;7.460;2023-06-01T09:20:23;19.23;;;12.57;;
59054;SDS011;44845;51.444;7.460;2023-06-01T09:22:48;23.20;;;15.55;;
59054;SDS011;44845;51.444;7.460;2023-06-01T09:25:14;20.35;;;14.27;;
59054;SDS011;44845;51.444;7.460;2023-06-01T09:27:43;23.08;;;15.48;;
59054;SDS011;44845;51.444;7.460;2023-06-01T09:30:14;25.08;;;16.92;;
59054;SDS011;44845;51.444;7.460;2023-06-01T09:32:40;27.95;;;19.90;;
59054;SDS011;44845;51.444;7.460;2023-06-01T09:35:06;30.50;;;20.00;;
59054;SDS011;44845;51.444;7.460;2023-06-01T09:37:33;30.50;;;21.38;;
59054;SDS011;44845;51.444;7.460;2023-06-01T09:39:59;32.83;;;22.45;;
59054;SDS011;44845;51.444;7.460;2023-06-01T09:42:32;36.05;;;21.90;;
59054;SDS011;44845;51.444;7.460;2023-06-01T09:45:14;29.15;;;22.15;;
59054;SDS011;44845;51.444;7.460;2023-06-01T09:47:42;31.63;;;21.37;;
59054;SDS011;44845;51.444;7.460;2023-06-01T09:50:07;29.50;;;22.00;;
59054;SDS011;44845;51.444;7.460;2023-06-01T09:52:32;29.33;;;21.38;;
59054;SDS011;44845;51.444;7.460;2023-06-01T09:55:04;32.28;;;21.42;;
59054;SDS011;44845;51.444;7.460;2023-06-01T09:57:30;31.48;;;19.90;;
59054;SDS011;44845;51.444;7.460;2023-06-01T09:59:56;35.47;;;21.02;;
59054;SDS011;44845;51.444;7.460;2023-06-01T10:02:22;33.00;;;21.55;;
59054;SDS011;44845;51.444;7.460;2023-06-01T10:04:50;27.83;;;17.63;;
59054;SDS011;44845;51.444;7.460;2023-06-01T10:07:17;26.55;;;18.23;;
59054;SDS011;44845;51.444;7.460;2023-06-01T10:09:45;28.23;;;18.92;;
59054;SDS011;44845;51.444;7.460;2023-06-01T10:12:13;29.95;;;19.15;;
59054;SDS011;44845;51.444;7.460;2023-06-01T10:14:39;29.38;;;19.08;;
59054;SDS011;44845;51.444;7.460;2023-06-01T10:17:05;31.67;;;18.55;;
59054;SDS011;44845;51.444;7.460;2023-06-01T10:19:30;29.98;;;18.20;;
59054;SDS011;44845;51.444;7.460;2023-06-01T10:21:56;30.58;;;17.42;;
59054;SDS011;44845;51.444;7.460;2023-06-01T10:24:23;24.15;;;16.10;;
59054;SDS011;44845;51.444;7.460;2023-06-01T10:29:24;24.10;;;14.05;;
59054;SDS011;44845;51.444;7.460;2023-06-01T10:31:50;27.75;;;16.38;;
59054;SDS011;44845;51.444;7.460;2023-06-01T10:34:17;23.27;;;14.85;;
59054;SDS011;44845;51.444;7.460;2023-06-01T10:39:29;19.60;;;13.50;;
59054;SDS011;44845;51.444;7.460;2023-06-01T10:41:56;27.23;;;14.05;;
59054;SDS011;44845;51.444;7.460;2023-06-01T10:57:31;24.42;;;12.35;;
59054;SDS011;44845;51.444;7.460;2023-06-01T11:13:22;19.40;;;11.88;;
59054;SDS011;44845;51.444;7.460;2023-06-01T11:18:41;24.85;;;12.18;;
59054;SDS011;44845;51.444;7.460;2023-06-01T11:21:32;19.13;;;12.05;;
59054;SDS011;44845;51.444;7.460;2023-06-01T11:24:03;19.63;;;12.45;;
59054;SDS011;44845;51.444;7.460;2023-06-01T11:26:32;24.70;;;12.95;;
59054;SDS011;44845;51.444;7.460;2023-06-01T11:29:04;20.70;;;12.75;;
59054;SDS011;44845;51.444;7.460;2023-06-01T11:34:02;11.73;;;9.02;;
59054;SDS011;44845;51.444;7.460;2023-06-01T11:36:28;26.63;;;13.00;;
59054;SDS011;44845;51.444;7.460;2023-06-01T11:38:54;16.70;;;11.60;;
59054;SDS011;44845;51.444;7.460;2023-06-01T11:41:21;18.75;;;11.82;;
59054;SDS011;44845;51.444;7.460;2023-06-01T11:43:54;21.77;;;12.35;;
59054;SDS011;44845;51.444;7.460;2023-06-01T11:46:21;25.88;;;12.90;;
59054;SDS011;44845;51.444;7.460;2023-06-01T11:49:03;22.23;;;12.82;;
59054;SDS011;44845;51.444;7.460;2023-06-01T11:51:31;22.45;;;12.10;;
59054;SDS011;44845;51.444;7.460;2023-06-01T11:54:00;24.23;;;13.38;;
59054;SDS011;44845;51.444;7.460;2023-06-01T11:56:29;25.55;;;14.00;;
59054;SDS011;44845;51.444;7.460;2023-06-01T11:58:56;21.88;;;13.30;;
59054;SDS011;44845;51.444;7.460;2023-06-01T12:01:23;21.17;;;13.80;;
59054;SDS011;44845;51.444;7.460;2023-06-01T12:03:50;24.13;;;13.18;;
59054;SDS011;44845;51.444;7.460;2023-06-01T12:06:19;27.13;;;13.05;;
59054;SDS011;44845;51.444;7.460;2023-06-01T12:08:46;20.92;;;12.88;;
59054;SDS011;44845;51.444;7.460;2023-06-01T12:11:12;20.23;;;12.10;;
59054;SDS011;44845;51.444;7.460;2023-06-01T12:13:41;22.40;;;12.85;;
59054;SDS011;44845;51.444;7.460;2023-06-01T12:16:07;19.48;;;13.38;;
59054;SDS011;44845;51.444;7.460;2023-06-01T12:18:32;20.90;;;13.27;;
59054;SDS011;44845;51.444;7.460;2023-06-01T12:20:58;24.30;;;13.38;;
59054;SDS011;44845;51.444;7.460;2023-06-01T12:23:23;22.00;;;14.93;;
59054;SDS011;44845;51.444;7.460;2023-06-01T12:25:53;22.85;;;14.27;;
59054;SDS011;44845;51.444;7.460;2023-06-01T12:28:24;22.98;;;14.32;;
59054;SDS011;44845;51.444;7.460;2023-06-01T12:31:12;23.60;;;15.88;;
59054;SDS011;44845;51.444;7.460;2023-06-01T12:33:38;20.30;;;14.02;;
59054;SDS011;44845;51.444;7.460;2023-06-01T12:36:05;26.08;;;14.82;;
59054;SDS011;44845;51.444;7.460;2023-06-01T12:38:51;26.13;;;15.60;;
59054;SDS011;44845;51.444;7.460;2023-06-01T12:41:17;24.17;;;14.95;;
59054;SDS011;44845;51.444;7.460;2023-06-01T12:43:46;25.85;;;15.75;;
59054;SDS011;44845;51.444;7.460;2023-06-01T12:46:18;24.38;;;15.38;;
59054;SDS011;44845;51.444;7.460;2023-06-01T12:48:44;28.60;;;16.98;;
59054;SDS011;44845;51.444;7.460;2023-06-01T12:51:11;23.90;;;16.17;;
59054;SDS011;44845;51.444;7.460;2023-06-01T12:53:37;23.40;;;15.75;;
59054;SDS011;44845;51.444;7.460;2023-06-01T12:56:03;22.48;;;15.93;;
59054;SDS011;44845;51.444;7.460;2023-06-01T12:58:29;21.73;;;14.95;;
59054;SDS011;44845;51.444;7.460;2023-06-01T13:00:54;22.40;;;15.80;;
59054;SDS011;44845;51.444;7.460;2023-06-01T13:03:19;30.48;;;16.33;;
59054;SDS011;44845;51.444;7.460;2023-06-01T13:05:47;20.88;;;15.68;;
59054;SDS011;44845;51.444;7.460;2023-06-01T13:08:14;21.40;;;15.98;;
59054;SDS011;44845;51.444;7.460;2023-06-01T13:10:41;26.00;;;16.33;;
59054;SDS011;44845;51.444;7.460;2023-06-01T13:13:07;25.40;;;16.17;;
59054;SDS011;44845;51.444;7.460;2023-06-01T13:15:32;25.58;;;16.73;;
59054;SDS011;44845;51.444;7.460;2023-06-01T13:17:57;24.90;;;16.33;;
59054;SDS011;44845;51.444;7.460;2023-06-01T13:20:23;23.25;;;16.13;;
59054;SDS011;44845;51.444;7.460;2023-06-01T13:22:48;29.45;;;17.05;;
59054;SDS011;44845;51.444;7.460;2023-06-01T13:25:14;29.02;;;17.90;;
59054;SDS011;44845;51.444;7.460;2023-06-01T13:27:39;25.42;;;17.85;;
59054;SDS011;44845;51.444;7.460;2023-06-01T13:30:05;24.73;;;17.45;;
59054;SDS011;44845;51.444;7.460;2023-06-01T13:32:31;26.23;;;16.90;;
59054;SDS011;44845;51.444;7.460;2023-06-01T13:34:56;30.00;;;18.48;;
59054;SDS011;44845;51.444;7.460;2023-06-01T13:37:22;24.95;;;16.58;;
59054;SDS011;44845;51.444;7.460;2023-06-01T13:39:47;30.35;;;17.90;;
59054;SDS011;44845;51.444;7.460;2023-06-01T13:42:13;24.30;;;16.77;;
59054;SDS011;44845;51.444;7.460;2023-06-01T13:44:39;24.95;;;17.23;;
59054;SDS011;44845;51.444;7.460;2023-06-01T13:47:07;22.73;;;15.60;;
59054;SDS011;44845;51.444;7.460;2023-06-01T13:49:32;23.13;;;15.93;;
59054;SDS011;44845;51.444;7.460;2023-06-01T13:51:58;27.73;;;16.60;;
59054;SDS011;44845;51.444;7.460;2023-06-01T13:54:24;27.92;;;16.38;;
59054;SDS011;44845;51.444;7.460;2023-06-01T13:56:49;28.05;;;15.93;;
59054;SDS011;44845;51.444;7.460;2023-06-01T13:59:14;24.75;;;14.48;;
59054;SDS011;44845;51.444;7.460;2023-06-01T14:01:40;19.73;;;13.30;;
59054;SDS011;44845;51.444;7.460;2023-06-01T14:04:05;21.23;;;14.07;;
59054;SDS011;44845;51.444;7.460;2023-06-01T14:06:31;21.23;;;13.80;;
59054;SDS011;44845;51.444;7.460;2023-06-01T14:08:57;16.33;;;11.93;;
59054;SDS011;44845;51.444;7.460;2023-06-01T14:11:22;19.98;;;13.27;;
59054;SDS011;44845;51.444;7.460;2023-06-01T14:13:47;19.13;;;13.40;;
59054;SDS011;44845;51.444;7.460;2023-06-01T14:16:13;18.95;;;13.07;;
59054;SDS011;44845;51.444;7.460;2023-06-01T14:18:38;16.92;;;12.18;;
59054;SDS011;44845;51.444;7.460;2023-06-01T14:21:04;17.40;;;12.65;;
59054;SDS011;44845;51.444;7.460;2023-06-01T14:23:29;15.90;;;12.57;;
59054;SDS011;44845;51.444;7.460;2023-06-01T14:25:55;18.40;;;12.70;;
59054;SDS011;44845;51.444;7.460;2023-06-01T14:28:20;17.85;;;12.10;;
59054;SDS011;44845;51.444;7.460;2023-06-01T14:30:46;19.73;;;12.27;;
59054;SDS011;44845;51.444;7.460;2023-06-01T14:33:14;16.83;;;10.75;;
59054;SDS011;44845;51.444;7.460;2023-06-01T14:35:40;16.08;;;10.20;;
59054;SDS011;44845;51.444;7.460;2023-06-01T14:38:05;16.33;;;12.10;;
59054;SDS011;44845;51.444;7.460;2023-06-01T14:40:30;15.18;;;11.48;;
59054;SDS011;44845;51.444;7.460;2023-06-01T14:42:56;23.42;;;14.13;;
59054;SDS011;44845;51.444;7.460;2023-06-01T14:45:21;18.52;;;13.32;;
59054;SDS011;44845;51.444;7.460;2023-06-01T14:47:48;17.27;;;12.75;;
59054;SDS011;44845;51.444;7.460;2023-06-01T14:50:13;16.77;;;12.02;;
59054;SDS011;44845;51.444;7.460;2023-06-01T14:58:19;14.88;;;10.18;;
59054;SDS011;44845;51.444;7.460;2023-06-01T15:00:45;15.50;;;10.40;;
59054;SDS011;44845;51.444;7.460;2023-06-01T15:03:11;14.32;;;9.32;;
59054;SDS011;44845;51.444;7.460;2023-06-01T15:05:37;14.02;;;9.18;;
59054;SDS011;44845;51.444;7.460;2023-06-01T15:08:04;14.07;;;9.25;;
59054;SDS011;44845;51.444;7.460;2023-06-01T15:10:30;15.40;;;9.70;;
59054;SDS011;44845;51.444;7.460;2023-06-01T15:12:55;13.00;;;8.80;;